Time;durP1;ratioP1;P1;durP2;ratioP2;P2;SDS_P1;SDS_P2;PMS_P1;PMS_P2;Temp;Humidity;BMP_temperature;BMP_pressure;BME280_temperature;BME280_humidity;BME280_pressure;Samples;Min_cycle;Max_cycle;Signal;HPM_P1;HPM_P2
2021/01/19 00:02:40;;;;;;;70.50;20.63;;;-4.80;99.90;;;;;;4330511;28;660634;-51
2021/01/19 00:05:27;;;;;;;117.37;39.70;;;-4.50;99.90;;;;;;4345505;28;660691;-52
2021/01/19 00:08:14;;;;;;;117.10;34.83;;;-4.50;99.90;;;;;;4328323;28;661677;-58
2021/01/19 00:11:02;;;;;;;109.90;35.05;;;-4.70;99.90;;;;;;4363561;28;661184;-54
2021/01/19 00:13:49;;;;;;;128.27;40.30;;;-4.80;99.90;;;;;;4334102;28;661660;-58
2021/01/19 00:16:36;;;;;;;118.70;36.90;;;-4.70;99.90;;;;;;4368399;28;660650;-54
2021/01/19 00:19:23;;;;;;;133.95;41.00;;;-4.60;99.90;;;;;;4364889;28;661817;-54
2021/01/19 00:22:09;;;;;;;88.47;28.40;;;-4.60;99.90;;;;;;4346218;28;661683;-56
2021/01/19 00:24:57;;;;;;;87.43;29.47;;;-4.50;99.90;;;;;;4365902;28;661346;-55
2021/01/19 00:27:44;;;;;;;108.33;30.87;;;-4.30;99.90;;;;;;4351593;28;660637;-57
2021/01/19 00:30:31;;;;;;;137.10;43.23;;;-4.30;99.90;;;;;;4348550;28;661560;-53
2021/01/19 00:33:19;;;;;;;29.57;9.30;;;-4.30;99.90;;;;;;4347249;28;662148;-58
2021/01/19 00:36:06;;;;;;;116.20;39.23;;;-4.20;99.90;;;;;;4358432;28;658544;-56
2021/01/19 00:38:54;;;;;;;102.70;32.37;;;-4.30;99.90;;;;;;4344922;28;662033;-58
2021/01/19 00:41:40;;;;;;;138.13;39.37;;;-4.30;99.90;;;;;;4361172;28;660643;-54
2021/01/19 00:44:28;;;;;;;95.57;30.70;;;-4.30;99.90;;;;;;4353391;28;660256;-55
2021/01/19 00:47:15;;;;;;;100.87;31.90;;;-4.30;99.90;;;;;;4340451;28;661098;-53
2021/01/19 00:50:03;;;;;;;119.20;36.37;;;-4.10;99.90;;;;;;4348698;28;661801;-54
2021/01/19 00:52:49;;;;;;;84.83;25.50;;;-4.00;99.90;;;;;;4335124;28;660745;-55
2021/01/19 00:55:36;;;;;;;92.90;26.03;;;-3.90;99.90;;;;;;4360794;28;660588;-56
2021/01/19 00:58:24;;;;;;;131.37;39.63;;;-3.90;99.90;;;;;;4342453;28;659722;-57
2021/01/19 01:01:11;;;;;;;120.43;37.17;;;-3.80;99.90;;;;;;4355092;28;661614;-53
2021/01/19 01:03:59;;;;;;;120.15;37.60;;;-3.90;99.90;;;;;;4342052;28;660886;-57
2021/01/19 01:06:46;;;;;;;131.37;40.47;;;-3.90;99.90;;;;;;4355579;28;660760;-56
2021/01/19 01:09:37;;;;;;;126.23;39.90;;;-4.00;99.90;;;;;;4346874;28;660187;-57
2021/01/19 01:12:24;;;;;;;109.47;35.92;;;-4.10;99.90;;;;;;4313337;28;662303;-56
2021/01/19 01:15:11;;;;;;;60.25;21.67;;;-4.00;99.90;;;;;;4358226;28;661779;-55
2021/01/19 01:17:59;;;;;;;57.87;21.73;;;-3.90;99.90;;;;;;4353289;28;660677;-59
2021/01/19 01:20:46;;;;;;;125.97;37.80;;;-3.70;99.90;;;;;;4358304;28;660373;-55
2021/01/19 01:23:34;;;;;;;92.00;28.77;;;-3.80;99.90;;;;;;4340877;28;660938;-56
2021/01/19 01:26:23;;;;;;;131.97;40.77;;;-3.70;99.90;;;;;;4369509;28;659362;-55
2021/01/19 01:29:10;;;;;;;130.93;42.27;;;-3.60;99.90;;;;;;4354283;28;661159;-56
2021/01/19 01:31:57;;;;;;;125.53;40.50;;;-3.80;99.90;;;;;;4369712;28;662694;-55
2021/01/19 01:34:45;;;;;;;139.70;43.63;;;-3.90;99.90;;;;;;4352723;28;661641;-57
2021/01/19 01:37:32;;;;;;;128.00;41.50;;;-3.90;99.90;;;;;;4377554;28;661965;-55
2021/01/19 01:40:19;;;;;;;124.43;37.40;;;-3.70;99.90;;;;;;4346457;28;660927;-58
2021/01/19 01:43:15;;;;;;;133.60;43.70;;;-3.80;99.90;;;;;;4366905;28;661834;-56
2021/01/19 01:46:02;;;;;;;131.27;42.43;;;-3.90;99.90;;;;;;4340722;28;661394;-54
2021/01/19 01:48:49;;;;;;;130.40;39.87;;;-3.90;99.90;;;;;;4355546;28;660347;-58
2021/01/19 01:51:37;;;;;;;121.17;39.30;;;-3.90;99.90;;;;;;4367341;28;661794;-55
2021/01/19 01:54:24;;;;;;;122.03;38.40;;;-3.80;99.90;;;;;;4345642;28;662515;-57
2021/01/19 01:57:11;;;;;;;142.90;42.78;;;-3.80;99.90;;;;;;4374817;28;662882;-52
2021/01/19 01:59:59;;;;;;;144.82;43.20;;;-3.90;99.90;;;;;;4369868;28;660570;-57
2021/01/19 02:02:53;;;;;;;101.67;30.60;;;-4.00;99.90;;;;;;4343845;28;661662;-56
2021/01/19 02:05:40;;;;;;;135.30;42.73;;;-3.80;99.90;;;;;;4320815;28;661626;-55
2021/01/19 02:08:40;;;;;;;101.07;30.23;;;-3.70;99.90;;;;;;4369697;28;660915;-53
2021/01/19 02:11:37;;;;;;;143.57;44.00;;;-3.70;99.90;;;;;;4341562;28;661847;-53
2021/01/19 02:14:27;;;;;;;113.87;35.80;;;-3.50;99.90;;;;;;4329789;28;661532;-54
2021/01/19 02:17:20;;;;;;;108.50;34.40;;;-3.50;99.90;;;;;;4355804;28;660743;-53
2021/01/19 02:20:26;;;;;;;110.00;37.20;;;-3.40;99.90;;;;;;4339896;28;660827;-54
2021/01/19 02:23:19;;;;;;;138.57;43.70;;;-3.50;99.90;;;;;;4345497;28;661134;-55
2021/01/19 02:26:51;;;;;;;112.30;33.53;;;-3.60;99.90;;;;;;4323004;28;662062;-53
2021/01/19 02:30:11;;;;;;;128.83;37.37;;;-3.40;99.90;;;;;;4349907;28;660825;-54
2021/01/19 02:33:05;;;;;;;88.57;27.63;;;-3.50;99.90;;;;;;4343263;28;660725;-59
2021/01/19 02:35:57;;;;;;;139.73;45.23;;;-3.20;99.90;;;;;;4345871;28;660255;-54
2021/01/19 02:38:48;;;;;;;102.13;34.35;;;-3.20;99.90;;;;;;4328786;28;661711;-59
2021/01/19 02:41:35;;;;;;;132.70;43.27;;;-3.30;99.90;;;;;;4350440;28;662114;-55
2021/01/19 02:44:23;;;;;;;112.33;37.43;;;-3.40;99.90;;;;;;4370077;28;661809;-57
2021/01/19 02:47:10;;;;;;;148.10;45.97;;;-3.50;99.90;;;;;;4342886;28;662456;-52
2021/01/19 02:49:58;;;;;;;107.07;32.73;;;-3.30;99.90;;;;;;4371625;28;662801;-54
2021/01/19 02:52:44;;;;;;;136.10;44.13;;;-3.30;99.90;;;;;;4351117;28;660568;-56
2021/01/19 02:55:31;;;;;;;131.17;42.27;;;-3.20;99.90;;;;;;4361288;28;662668;-54
2021/01/19 02:58:42;;;;;;;122.35;39.42;;;-3.20;99.90;;;;;;4348166;28;660740;-57
2021/01/19 03:01:33;;;;;;;124.73;41.63;;;-3.30;99.90;;;;;;4351586;28;660592;-55
2021/01/19 03:04:20;;;;;;;118.70;38.03;;;-3.30;99.90;;;;;;4346404;28;660707;-56
2021/01/19 03:07:08;;;;;;;82.43;28.17;;;-3.40;99.90;;;;;;4361537;28;662735;-52
2021/01/19 03:09:55;;;;;;;117.63;38.63;;;-3.10;99.90;;;;;;4348217;28;659876;-55
2021/01/19 03:12:44;;;;;;;101.87;34.27;;;-3.10;99.90;;;;;;4366567;28;660556;-56
2021/01/19 03:15:31;;;;;;;50.93;18.57;;;-3.20;99.90;;;;;;4348190;28;661240;-54
2021/01/19 03:18:19;;;;;;;53.60;21.03;;;-3.10;99.90;;;;;;4366762;28;659625;-57
2021/01/19 03:21:06;;;;;;;75.33;27.10;;;-3.10;99.90;;;;;;4376193;28;660137;-55
2021/01/19 03:23:55;;;;;;;103.13;37.00;;;-3.00;99.90;;;;;;4354996;28;659759;-58
2021/01/19 03:26:41;;;;;;;86.70;27.87;;;-3.00;99.90;;;;;;4356966;28;662736;-53
2021/01/19 03:29:29;;;;;;;57.97;18.45;;;-2.80;99.90;;;;;;4348970;28;660251;-58
2021/01/19 03:32:16;;;;;;;99.33;34.63;;;-2.60;99.90;;;;;;4368012;28;659585;-52
2021/01/19 03:35:03;;;;;;;58.03;18.63;;;-2.60;99.90;;;;;;4371449;28;659606;-51
2021/01/19 03:37:50;;;;;;;32.93;12.27;;;-2.60;99.90;;;;;;4348163;28;660841;-55
2021/01/19 03:40:38;;;;;;;50.37;18.47;;;-2.60;99.90;;;;;;4368346;28;661113;-55
2021/01/19 03:43:25;;;;;;;90.70;31.37;;;-2.50;99.90;;;;;;4349467;28;659608;-56
2021/01/19 03:46:12;;;;;;;39.00;15.17;;;-2.50;99.90;;;;;;4347793;28;660154;-56
2021/01/19 03:48:59;;;;;;;35.77;14.17;;;-2.50;99.90;;;;;;4336374;28;660591;-58
2021/01/19 03:51:46;;;;;;;81.77;29.30;;;-2.40;99.90;;;;;;4348657;28;661434;-57
2021/01/19 03:54:33;;;;;;;53.23;19.60;;;-2.50;99.90;;;;;;4349389;28;659635;-57
2021/01/19 03:57:21;;;;;;;84.03;29.43;;;-2.50;99.90;;;;;;4350204;28;660461;-52
2021/01/19 04:00:09;;;;;;;54.00;19.77;;;-2.50;99.90;;;;;;4369748;28;659750;-55
2021/01/19 04:02:56;;;;;;;77.20;26.97;;;-2.40;99.90;;;;;;4349662;28;661375;-53
2021/01/19 04:05:43;;;;;;;82.53;30.40;;;-2.40;99.90;;;;;;4364870;28;659615;-56
2021/01/19 04:08:30;;;;;;;43.53;17.17;;;-2.50;99.90;;;;;;4327202;28;659787;-58
2021/01/19 04:11:17;;;;;;;80.80;29.93;;;-2.50;99.90;;;;;;4352026;28;660685;-57
2021/01/19 04:14:05;;;;;;;44.57;14.57;;;-2.50;99.90;;;;;;4350467;28;660693;-57
2021/01/19 04:16:52;;;;;;;66.37;23.57;;;-2.30;99.90;;;;;;4364414;28;661141;-56
2021/01/19 04:19:39;;;;;;;73.17;26.23;;;-2.20;99.90;;;;;;4335253;28;660333;-57
2021/01/19 04:22:26;;;;;;;69.57;24.00;;;-2.20;99.90;;;;;;4355888;28;660976;-58
2021/01/19 04:25:14;;;;;;;50.57;18.77;;;-2.30;99.90;;;;;;4347503;28;662107;-59
2021/01/19 04:28:00;;;;;;;68.23;26.77;;;-2.20;99.90;;;;;;4368137;28;660197;-55
2021/01/19 04:30:49;;;;;;;64.90;26.40;;;-2.10;99.90;;;;;;4368469;28;659671;-58
2021/01/19 04:33:35;;;;;;;64.10;23.07;;;-2.00;99.90;;;;;;4344521;28;660620;-57
2021/01/19 04:36:22;;;;;;;13.03;5.57;;;-2.00;99.90;;;;;;4360116;28;659863;-56
2021/01/19 04:39:09;;;;;;;58.65;21.90;;;-1.80;99.90;;;;;;4332756;28;660036;-56
2021/01/19 04:41:56;;;;;;;36.37;17.40;;;-1.80;99.90;;;;;;4374757;28;660908;-54
2021/01/19 04:44:44;;;;;;;59.17;22.90;;;-1.80;99.90;;;;;;4359440;28;660245;-59
2021/01/19 04:47:32;;;;;;;26.63;10.93;;;-1.90;99.90;;;;;;4367505;28;660540;-53
2021/01/19 04:50:19;;;;;;;49.97;19.57;;;-1.70;99.90;;;;;;4351914;28;659521;-57
2021/01/19 04:53:06;;;;;;;54.90;21.97;;;-1.60;99.90;;;;;;4374040;28;660852;-57
2021/01/19 04:55:54;;;;;;;51.20;19.10;;;-1.50;99.90;;;;;;4373350;28;659520;-56
2021/01/19 04:58:41;;;;;;;28.77;9.87;;;-1.60;99.90;;;;;;4354735;28;661094;-56
2021/01/19 05:01:39;;;;;;;40.50;14.73;;;-1.60;99.90;;;;;;4367201;28;658304;-54
2021/01/19 05:04:50;;;;;;;30.70;11.67;;;-1.40;99.90;;;;;;4348357;28;661333;-58
2021/01/19 05:07:39;;;;;;;41.90;15.40;;;-1.40;99.90;;;;;;4264092;29;659695;-56
2021/01/19 05:10:30;;;;;;;41.17;16.13;;;-1.30;99.90;;;;;;4267562;29;661352;-58
2021/01/19 05:13:16;;;;;;;46.10;19.37;;;-1.30;99.90;;;;;;4264645;29;660074;-54
2021/01/19 05:16:04;;;;;;;52.87;20.00;;;-1.30;99.90;;;;;;4272735;29;659696;-58
2021/01/19 05:18:51;;;;;;;52.00;20.67;;;-1.50;99.90;;;;;;4291581;29;662044;-57
2021/01/19 05:21:39;;;;;;;46.63;17.87;;;-1.50;99.90;;;;;;4322368;29;661504;-58
2021/01/19 05:24:26;;;;;;;29.23;12.57;;;-1.40;99.90;;;;;;4295663;29;660240;-57
2021/01/19 05:27:13;;;;;;;44.07;16.73;;;-1.30;99.90;;;;;;4311133;29;659751;-59
2021/01/19 05:30:01;;;;;;;43.07;16.77;;;-1.40;99.90;;;;;;4300365;29;659754;-55
2021/01/19 05:32:48;;;;;;;37.63;15.70;;;-1.40;99.90;;;;;;4312350;29;659616;-58
2021/01/19 05:35:35;;;;;;;39.77;15.63;;;-1.30;99.90;;;;;;4300664;29;660627;-54
2021/01/19 05:38:23;;;;;;;35.30;13.20;;;-1.30;99.90;;;;;;4318626;29;661472;-57
2021/01/19 05:41:09;;;;;;;33.97;13.37;;;-1.20;99.90;;;;;;4293454;29;659457;-55
2021/01/19 05:43:57;;;;;;;37.23;16.23;;;-1.10;99.90;;;;;;4311271;29;661774;-55
2021/01/19 05:46:48;;;;;;;39.30;15.40;;;-1.10;99.90;;;;;;4300042;29;659296;-58
2021/01/19 05:49:36;;;;;;;39.27;14.57;;;-1.20;99.90;;;;;;4332845;28;660205;-56
2021/01/19 05:52:31;;;;;;;26.03;9.60;;;-1.10;99.90;;;;;;4331144;28;659447;-59
2021/01/19 05:55:26;;;;;;;46.57;18.20;;;-1.00;99.90;;;;;;4332764;28;658469;-55
2021/01/19 05:58:14;;;;;;;44.40;17.35;;;-1.00;99.90;;;;;;4327353;28;660317;-59
2021/01/19 06:01:02;;;;;;;43.87;16.23;;;-1.10;99.90;;;;;;4347066;28;661568;-58
2021/01/19 06:03:52;;;;;;;42.13;15.67;;;-1.10;99.90;;;;;;4330302;28;659754;-59
2021/01/19 06:06:39;;;;;;;19.23;8.93;;;-1.20;99.90;;;;;;4326369;28;660256;-58
2021/01/19 06:09:26;;;;;;;46.07;15.57;;;-1.00;99.90;;;;;;4352006;28;659654;-58
2021/01/19 06:12:15;;;;;;;18.77;7.63;;;-1.10;99.90;;;;;;4344697;28;659742;-59
2021/01/19 06:15:02;;;;;;;41.93;17.50;;;-1.00;99.90;;;;;;4348913;28;660511;-56
2021/01/19 06:17:49;;;;;;;42.97;15.00;;;-0.90;99.90;;;;;;4330087;28;659939;-57
2021/01/19 06:20:42;;;;;;;21.67;8.83;;;-0.90;99.90;;;;;;4357453;28;660286;-59
2021/01/19 06:23:29;;;;;;;56.07;19.03;;;-0.80;99.90;;;;;;4327730;28;659470;-58
2021/01/19 06:26:16;;;;;;;34.77;12.10;;;-0.90;99.90;;;;;;4353415;28;661836;-58
2021/01/19 06:29:04;;;;;;;48.93;17.27;;;-0.90;99.90;;;;;;4348332;28;659766;-55
2021/01/19 06:31:51;;;;;;;46.40;17.17;;;-1.00;99.90;;;;;;4333011;28;661396;-58
2021/01/19 06:34:39;;;;;;;48.57;19.70;;;-1.00;99.90;;;;;;4338682;28;659857;-60
2021/01/19 06:37:28;;;;;;;57.67;20.83;;;-1.00;99.90;;;;;;4356155;28;660638;-58
2021/01/19 06:40:16;;;;;;;30.53;12.00;;;-1.10;99.90;;;;;;4333745;28;660457;-59
2021/01/19 06:43:04;;;;;;;50.63;19.73;;;-1.00;99.90;;;;;;4353081;28;661270;-57
2021/01/19 06:45:52;;;;;;;67.67;21.63;;;-1.10;99.90;;;;;;4324654;28;660982;-58
2021/01/19 06:48:40;;;;;;;53.13;18.13;;;-1.10;99.90;;;;;;4331462;28;660721;-60
2021/01/19 06:51:27;;;;;;;54.23;19.33;;;-1.10;99.90;;;;;;4355214;28;660313;-57
2021/01/19 06:54:14;;;;;;;50.50;18.77;;;-0.80;99.90;;;;;;4331704;28;659961;-58
2021/01/19 06:57:05;;;;;;;52.47;20.33;;;-0.90;99.90;;;;;;4355442;28;660850;-58
2021/01/19 06:59:54;;;;;;;60.33;20.73;;;-0.90;99.90;;;;;;4325935;28;659690;-58
2021/01/19 07:02:42;;;;;;;61.73;21.63;;;-0.90;99.90;;;;;;4331388;28;661119;-58
2021/01/19 07:05:29;;;;;;;50.70;18.93;;;-0.80;99.90;;;;;;4328947;28;659552;-60
2021/01/19 07:08:38;;;;;;;46.70;18.35;;;-0.60;99.90;;;;;;4358933;28;661195;-56
2021/01/19 07:11:59;;;;;;;23.07;7.97;;;-0.60;99.90;;;;;;4258614;29;661659;-57
2021/01/19 07:15:04;;;;;;;43.83;18.17;;;-0.60;99.90;;;;;;4273672;29;659301;-58
2021/01/19 07:18:18;;;;;;;57.63;19.17;;;-0.50;99.90;;;;;;4276543;29;659520;-58
2021/01/19 07:21:06;;;;;;;57.30;21.93;;;-0.50;99.90;;;;;;4279565;29;660217;-56
2021/01/19 07:24:12;;;;;;;50.77;20.77;;;-0.60;99.90;;;;;;4300240;29;660954;-56
2021/01/19 07:26:59;;;;;;;20.17;8.77;;;-0.50;99.90;;;;;;4257090;29;659636;-59
2021/01/19 07:29:46;;;;;;;56.33;19.80;;;-0.40;99.90;;;;;;4310043;29;660464;-58
2021/01/19 07:32:33;;;;;;;18.53;8.07;;;-0.50;99.90;;;;;;4300554;29;661339;-58
2021/01/19 07:35:24;;;;;;;50.03;18.10;;;-0.40;99.90;;;;;;4277366;29;658631;-61
2021/01/19 07:38:28;;;;;;;48.27;18.43;;;-0.50;99.90;;;;;;4267847;29;661334;-60
2021/01/19 07:41:26;;;;;;;53.53;19.83;;;-0.30;99.90;;;;;;4254822;29;660748;-60
2021/01/19 07:44:21;;;;;;;47.20;18.37;;;-0.30;99.90;;;;;;4279208;29;660496;-60
2021/01/19 07:47:14;;;;;;;52.47;20.93;;;-0.20;99.90;;;;;;4286393;29;660323;-60
2021/01/19 07:50:03;;;;;;;37.33;16.10;;;-0.20;99.90;;;;;;4275517;29;659921;-59
2021/01/19 07:52:53;;;;;;;39.13;12.57;;;-0.30;99.90;;;;;;4325164;28;659593;-59
2021/01/19 07:55:44;;;;;;;50.87;19.73;;;-0.10;99.90;;;;;;4323305;28;661569;-59
2021/01/19 07:58:36;;;;;;;42.40;17.20;;;-0.20;99.90;;;;;;4334408;28;661376;-59
2021/01/19 08:01:26;;;;;;;53.42;21.15;;;-0.20;99.90;;;;;;4331642;28;660467;-60
2021/01/19 08:04:14;;;;;;;58.90;19.47;;;0.00;99.90;;;;;;4331506;28;659513;-60
2021/01/19 08:07:10;;;;;;;48.03;19.83;;;0.00;99.90;;;;;;4330948;28;659207;-60
2021/01/19 08:09:58;;;;;;;54.83;19.90;;;-0.20;99.90;;;;;;4334572;28;658815;-60
2021/01/19 08:12:47;;;;;;;54.00;21.03;;;-0.10;99.90;;;;;;4338217;28;661632;-61
2021/01/19 08:15:34;;;;;;;53.80;19.97;;;-0.10;99.90;;;;;;4327496;28;659581;-59
2021/01/19 08:18:21;;;;;;;13.20;5.77;;;0.00;99.90;;;;;;4349989;28;660905;-60
2021/01/19 08:21:09;;;;;;;49.87;19.50;;;0.00;99.90;;;;;;4348443;28;657710;-59
2021/01/19 08:23:55;;;;;;;39.10;17.03;;;0.00;99.90;;;;;;4331557;28;659450;-60
2021/01/19 08:26:44;;;;;;;40.93;18.13;;;0.00;99.90;;;;;;4352812;28;659276;-59
2021/01/19 08:29:33;;;;;;;45.90;20.10;;;0.20;99.90;;;;;;4349918;28;659168;-59
2021/01/19 08:32:22;;;;;;;36.43;15.03;;;0.20;99.90;;;;;;4352654;28;659945;-60
2021/01/19 08:35:10;;;;;;;48.00;17.80;;;0.30;99.90;;;;;;4322176;28;659246;-61
2021/01/19 08:37:58;;;;;;;52.00;20.70;;;0.40;99.90;;;;;;4377163;28;659394;-59
2021/01/19 08:40:44;;;;;;;42.13;18.60;;;0.40;99.90;;;;;;4355177;28;658860;-60
2021/01/19 08:43:47;;;;;;;26.87;11.77;;;0.40;99.90;;;;;;4367146;28;660008;-59
2021/01/19 08:46:35;;;;;;;37.80;15.67;;;0.50;99.90;;;;;;4350566;28;659206;-60
2021/01/19 08:49:22;;;;;;;47.50;17.33;;;0.40;99.90;;;;;;4366661;28;659314;-60
2021/01/19 08:52:10;;;;;;;54.87;20.37;;;0.30;99.90;;;;;;4350635;28;658643;-61
2021/01/19 08:54:57;;;;;;;48.03;19.73;;;0.40;99.90;;;;;;4378730;28;658515;-60
2021/01/19 08:57:49;;;;;;;43.73;20.10;;;0.40;99.90;;;;;;4337741;28;658885;-61
2021/01/19 09:00:37;;;;;;;45.40;17.93;;;0.40;99.90;;;;;;4343002;28;659293;-60
2021/01/19 09:03:24;;;;;;;52.80;22.20;;;0.40;99.90;;;;;;4353816;28;658481;-61
2021/01/19 09:06:12;;;;;;;50.80;21.00;;;0.30;99.90;;;;;;4370842;28;660042;-60
2021/01/19 09:09:01;;;;;;;36.35;16.00;;;0.40;99.90;;;;;;4350145;28;658985;-60
2021/01/19 09:11:48;;;;;;;22.17;10.37;;;0.50;99.90;;;;;;4380999;28;659586;-59
2021/01/19 09:14:35;;;;;;;37.83;17.93;;;0.50;99.90;;;;;;4356950;28;659608;-60
2021/01/19 09:17:24;;;;;;;35.90;14.20;;;0.50;99.90;;;;;;4378968;28;659169;-60
2021/01/19 09:20:11;;;;;;;23.97;10.27;;;0.50;99.90;;;;;;4361572;28;659633;-60
2021/01/19 09:23:06;;;;;;;54.67;21.50;;;0.50;99.90;;;;;;4368208;28;659785;-61
2021/01/19 09:26:02;;;;;;;48.60;21.80;;;0.50;99.90;;;;;;4341351;28;659630;-62
2021/01/19 09:28:49;;;;;;;30.70;13.20;;;0.50;99.90;;;;;;4304598;28;660009;-60
2021/01/19 09:31:36;;;;;;;42.47;19.30;;;0.50;99.90;;;;;;4371391;28;660361;-60
2021/01/19 09:34:25;;;;;;;56.07;22.83;;;0.60;99.90;;;;;;4370250;28;659597;-61
2021/01/19 09:37:12;;;;;;;25.40;10.40;;;0.60;99.90;;;;;;4373121;28;660194;-60
2021/01/19 09:39:59;;;;;;;44.15;18.63;;;0.60;99.90;;;;;;4347897;28;658472;-61
2021/01/19 09:42:46;;;;;;;13.27;6.57;;;0.60;99.90;;;;;;4371804;28;659480;-60
2021/01/19 09:45:33;;;;;;;41.07;18.50;;;0.60;99.90;;;;;;4364924;28;657576;-60
2021/01/19 09:48:20;;;;;;;52.73;15.63;;;0.70;99.90;;;;;;4345824;28;659585;-60
2021/01/19 09:51:08;;;;;;;43.83;18.77;;;0.70;99.90;;;;;;4372590;28;659273;-61
2021/01/19 09:53:55;;;;;;;47.27;18.20;;;0.60;99.90;;;;;;4350052;28;658724;-60
2021/01/19 09:56:42;;;;;;;24.70;11.43;;;0.70;99.90;;;;;;4366341;28;659046;-60
2021/01/19 09:59:30;;;;;;;43.53;18.50;;;0.70;99.90;;;;;;4356847;28;658709;-61
2021/01/19 10:02:27;;;;;;;43.50;17.77;;;0.80;99.90;;;;;;4372291;28;661047;-60
2021/01/19 10:05:14;;;;;;;45.40;19.33;;;0.80;99.90;;;;;;4332272;28;659291;-60
2021/01/19 10:08:02;;;;;;;33.53;12.80;;;0.80;99.90;;;;;;4378363;28;659442;-60
2021/01/19 10:10:49;;;;;;;29.77;13.10;;;0.80;99.90;;;;;;4349965;28;659013;-60
2021/01/19 10:13:36;;;;;;;44.27;18.40;;;0.90;99.90;;;;;;4375020;28;660315;-60
2021/01/19 10:16:39;;;;;;;42.73;16.33;;;1.00;99.90;;;;;;4367572;28;658644;-61
2021/01/19 10:19:26;;;;;;;40.23;19.03;;;0.90;99.90;;;;;;4333877;28;659642;-60
2021/01/19 10:22:14;;;;;;;38.95;16.73;;;0.90;99.90;;;;;;4349349;28;658656;-61
2021/01/19 10:25:02;;;;;;;44.63;19.13;;;1.00;99.90;;;;;;4375738;28;658544;-60
2021/01/19 10:27:49;;;;;;;31.87;14.70;;;1.10;99.90;;;;;;4340375;28;659536;-61
2021/01/19 10:30:37;;;;;;;49.77;17.73;;;1.20;99.90;;;;;;4361064;28;659636;-60
2021/01/19 10:33:26;;;;;;;46.93;18.50;;;1.20;99.90;;;;;;4339444;28;658782;-62
2021/01/19 10:36:13;;;;;;;41.83;18.03;;;1.30;99.90;;;;;;4352875;28;659698;-60
2021/01/19 10:39:07;;;;;;;44.40;19.30;;;1.20;99.90;;;;;;4332760;28;659345;-60
2021/01/19 10:41:56;;;;;;;45.25;19.83;;;1.20;99.90;;;;;;4305502;28;659361;-61
2021/01/19 10:44:43;;;;;;;49.40;19.77;;;1.20;99.90;;;;;;4361657;28;658404;-60
2021/01/19 10:47:38;;;;;;;41.67;17.27;;;1.20;99.90;;;;;;4331290;28;660599;-60
2021/01/19 10:50:29;;;;;;;27.80;12.43;;;1.20;99.90;;;;;;4318331;28;660281;-60
2021/01/19 10:53:16;;;;;;;45.27;18.73;;;1.20;99.90;;;;;;4328661;28;659934;-60
2021/01/19 10:56:13;;;;;;;48.17;21.27;;;1.30;99.90;;;;;;4353228;28;658461;-61
2021/01/19 10:59:01;;;;;;;33.23;12.30;;;1.20;99.90;;;;;;4306667;28;659809;-61
2021/01/19 11:01:49;;;;;;;42.40;17.67;;;1.20;99.90;;;;;;4351123;28;658387;-61
2021/01/19 11:04:36;;;;;;;28.05;12.30;;;1.10;99.90;;;;;;4350774;28;660443;-60
2021/01/19 11:07:23;;;;;;;55.33;22.07;;;1.10;99.90;;;;;;4354511;28;658369;-59
2021/01/19 11:10:11;;;;;;;50.50;21.52;;;1.00;99.90;;;;;;4333979;28;658465;-61
2021/01/19 11:12:58;;;;;;;31.50;12.97;;;1.10;99.90;;;;;;4358261;28;658408;-61
2021/01/19 11:15:46;;;;;;;32.23;13.30;;;1.30;99.90;;;;;;4332273;28;660441;-60
2021/01/19 11:18:36;;;;;;;35.43;17.00;;;1.40;99.90;;;;;;4349279;28;658588;-60
2021/01/19 11:21:23;;;;;;;35.97;15.60;;;1.40;99.90;;;;;;4335493;28;658544;-60
2021/01/19 11:24:11;;;;;;;43.10;18.80;;;1.50;99.90;;;;;;4325735;28;660341;-60
2021/01/19 11:26:58;;;;;;;37.80;18.17;;;1.60;99.90;;;;;;4364602;28;658613;-60
2021/01/19 11:29:45;;;;;;;23.90;9.60;;;1.60;99.90;;;;;;4345901;28;659416;-60
2021/01/19 11:32:33;;;;;;;31.30;10.10;;;1.50;99.90;;;;;;4372138;28;657873;-60
2021/01/19 11:35:20;;;;;;;16.88;7.68;;;1.50;99.90;;;;;;4352821;28;660217;-61
2021/01/19 11:38:07;;;;;;;39.47;18.00;;;1.40;99.90;;;;;;4376012;28;659252;-61
2021/01/19 11:40:54;;;;;;;44.58;20.00;;;1.30;99.90;;;;;;4351367;28;659216;-62
2021/01/19 11:43:41;;;;;;;34.23;13.63;;;1.40;99.90;;;;;;4373644;28;658608;-60
2021/01/19 11:46:28;;;;;;;33.77;13.53;;;1.60;99.90;;;;;;4369802;28;658364;-61
2021/01/19 11:49:16;;;;;;;30.77;13.23;;;1.50;99.90;;;;;;4342531;28;659649;-60
2021/01/19 11:52:04;;;;;;;45.37;19.40;;;1.40;99.90;;;;;;4374091;28;658691;-61
2021/01/19 11:54:51;;;;;;;44.97;20.50;;;1.40;99.90;;;;;;4365221;28;660896;-60
2021/01/19 11:57:38;;;;;;;36.20;11.13;;;1.50;99.90;;;;;;4367698;28;658842;-61
2021/01/19 12:00:25;;;;;;;22.77;10.93;;;1.60;99.90;;;;;;4345342;28;658508;-61
2021/01/19 12:03:13;;;;;;;20.83;9.70;;;1.70;99.90;;;;;;4371993;28;659323;-60
2021/01/19 12:06:01;;;;;;;12.00;4.97;;;1.80;99.90;;;;;;4352576;28;657706;-60
2021/01/19 12:08:49;;;;;;;25.83;9.63;;;1.80;99.90;;;;;;4356106;28;658569;-61
2021/01/19 12:11:39;;;;;;;16.73;6.57;;;1.80;99.90;;;;;;4370834;28;659508;-60
2021/01/19 12:14:26;;;;;;;47.93;20.20;;;1.70;99.90;;;;;;4348911;28;659028;-60
2021/01/19 12:17:14;;;;;;;26.37;12.40;;;1.80;99.90;;;;;;4368871;28;658308;-60
2021/01/19 12:20:01;;;;;;;25.33;10.52;;;1.80;99.90;;;;;;4344855;28;661131;-59
2021/01/19 12:22:50;;;;;;;32.97;12.53;;;1.70;99.90;;;;;;4377420;28;658740;-61
2021/01/19 12:25:37;;;;;;;44.20;18.33;;;1.70;99.90;;;;;;4372155;28;660864;-60
2021/01/19 12:28:24;;;;;;;44.10;17.63;;;1.60;99.90;;;;;;4355165;28;660067;-62
2021/01/19 12:31:11;;;;;;;50.80;20.63;;;1.70;99.90;;;;;;4373448;28;659790;-59
2021/01/19 12:33:58;;;;;;;38.63;14.23;;;1.70;99.90;;;;;;4367733;28;658754;-60
2021/01/19 12:36:45;;;;;;;28.63;10.17;;;1.70;99.90;;;;;;4353581;28;658618;-60
2021/01/19 12:39:33;;;;;;;21.50;7.67;;;1.70;99.90;;;;;;4373379;28;659876;-60
2021/01/19 12:42:20;;;;;;;32.70;13.87;;;1.80;99.90;;;;;;4352091;28;657675;-60
2021/01/19 12:45:08;;;;;;;31.07;12.00;;;1.80;99.90;;;;;;4372132;28;659512;-60
2021/01/19 12:47:55;;;;;;;34.80;13.97;;;1.90;99.90;;;;;;4353553;28;658358;-60
2021/01/19 12:50:43;;;;;;;20.03;7.57;;;2.00;99.90;;;;;;4381963;28;660497;-60
2021/01/19 12:53:30;;;;;;;36.50;16.90;;;1.80;99.90;;;;;;4356367;28;657629;-60
2021/01/19 12:56:19;;;;;;;40.07;15.97;;;2.00;99.90;;;;;;4351013;28;659007;-60
2021/01/19 12:59:06;;;;;;;27.83;11.50;;;2.10;99.90;;;;;;4330169;28;659144;-60
2021/01/19 13:01:53;;;;;;;33.80;13.60;;;2.10;99.90;;;;;;4362986;28;658529;-59
2021/01/19 13:04:40;;;;;;;25.47;8.47;;;2.20;99.90;;;;;;4342972;28;658675;-60
2021/01/19 13:07:27;;;;;;;34.73;15.60;;;2.30;99.90;;;;;;4376227;28;657947;-60
2021/01/19 13:10:14;;;;;;;19.83;9.67;;;2.20;99.90;;;;;;4333407;28;658541;-61
2021/01/19 13:13:02;;;;;;;31.70;13.30;;;2.30;99.90;;;;;;4366590;28;659373;-60
2021/01/19 13:15:49;;;;;;;27.03;11.13;;;2.30;99.90;;;;;;4349840;28;658760;-60
2021/01/19 13:18:36;;;;;;;40.27;16.80;;;2.40;99.90;;;;;;4377664;28;659561;-60
2021/01/19 13:21:23;;;;;;;22.00;9.93;;;2.50;99.90;;;;;;4372276;28;659485;-60
2021/01/19 13:24:10;;;;;;;37.17;15.93;;;2.50;99.90;;;;;;4356481;28;657855;-61
2021/01/19 13:26:57;;;;;;;26.07;10.60;;;2.50;99.90;;;;;;4356310;28;659227;-61
2021/01/19 13:29:45;;;;;;;11.67;5.20;;;2.40;99.90;;;;;;4336611;28;658729;-60
2021/01/19 13:32:34;;;;;;;26.17;10.17;;;2.40;99.90;;;;;;4351284;28;658315;-59
2021/01/19 13:35:21;;;;;;;17.75;7.00;;;2.50;99.90;;;;;;4345439;28;659872;-61
2021/01/19 13:38:08;;;;;;;22.80;10.80;;;2.50;99.90;;;;;;4359319;28;658673;-60
2021/01/19 13:40:57;;;;;;;38.03;16.63;;;2.40;99.90;;;;;;4337763;28;659746;-60
2021/01/19 13:43:45;;;;;;;16.10;8.93;;;2.40;99.90;;;;;;4337177;28;658969;-61
2021/01/19 13:46:33;;;;;;;12.13;4.93;;;2.50;99.90;;;;;;4363927;28;658829;-60
2021/01/19 13:49:20;;;;;;;36.73;15.50;;;2.50;99.90;;;;;;4338167;28;658749;-60
2021/01/19 13:52:07;;;;;;;37.53;15.40;;;2.40;99.90;;;;;;4347944;28;659681;-60
2021/01/19 13:54:54;;;;;;;10.77;5.73;;;2.40;99.90;;;;;;4335453;28;659233;-61
2021/01/19 13:57:41;;;;;;;17.30;7.85;;;2.40;99.90;;;;;;4356683;28;657371;-62
2021/01/19 14:00:30;;;;;;;16.07;6.63;;;2.40;99.90;;;;;;4357653;28;657535;-60
2021/01/19 14:03:18;;;;;;;31.40;12.37;;;2.30;99.90;;;;;;4335589;28;657801;-61
2021/01/19 14:06:09;;;;;;;26.37;11.17;;;2.10;99.90;;;;;;4333919;28;658778;-60
2021/01/19 14:08:56;;;;;;;35.90;14.37;;;2.20;99.90;;;;;;4329332;28;659193;-61
2021/01/19 14:11:44;;;;;;;38.97;15.50;;;2.30;99.90;;;;;;4345794;28;658999;-62